Greenville Farm
1800 N 800 E, North Logan
Last Weather Update:1/31/2012
Date
ETo
ETc
Rain
Irrigation
Req
Temp
Max
Temp
Min
Temp
Avg
Avg RH
Avg Wind
Avg Solar
inches
inches
incehs
inches
F
F
F
%
%
watts/m2
12/1/2011 0.05" 0.00" 0.01" -0.01" 38.6° 21.8° 29.5° 55.2% 6.8 MPH 9.5w/m2
12/2/2011 0.02" 0.00" 0.00" 0.00" 28.2° 13.8° 21.1° 80.4% 2.9 MPH 5.3w/m2
12/3/2011 0.02" 0.00" 0.06" -0.05" 30.3° 15.7° 21.9° 80.8% 2.0 MPH 7.0w/m2
12/4/2011 0.01" 0.00" 0.07" -0.06" 26.8° 18.6° 22.0° 76.4% 2.9 MPH 4.8w/m2
12/5/2011 0.02" 0.00" 0.00" 0.00" 21.5° 3.3° 12.4° 68.5% 3.3 MPH 9.2w/m2
12/6/2011 0.02" 0.00" 0.00" 0.00" 25.2° 3.6° 12.5° 73.9% 1.7 MPH 7.8w/m2
12/7/2011 0.02" 0.00" 0.00" 0.00" 29.0° 6.2° 15.9° 78.8% 1.8 MPH 8.6w/m2
12/8/2011 0.02" 0.00" 0.01" -0.01" 32.8° 17.2° 23.9° 77.5% 1.9 MPH 8.8w/m2
12/9/2011 0.02" 0.00" 0.00" 0.00" 32.1° 11.8° 20.6° 81.6% 2.2 MPH 8.3w/m2
12/10/2011 0.02" 0.00" 0.00" 0.00" 31.9° 10.7° 19.8° 83.8% 2.1 MPH 8.2w/m2
12/11/2011 0.02" 0.00" 0.00" 0.00" 32.2° 11.4° 20.3° 87.1% 1.7 MPH 7.3w/m2
12/12/2011 0.01" 0.00" 0.00" 0.00" 30.0° 13.7° 22.3° 88.1% 1.6 MPH 5.1w/m2
12/13/2011 0.01" 0.00" 0.01" -0.01" 28.3° 17.2° 23.5° 93.3% 1.8 MPH 2.6w/m2
12/14/2011 0.01" 0.00" 0.03" -0.02" 31.5° 21.5° 26.9° 92.7% 2.0 MPH 2.6w/m2
12/15/2011 0.01" 0.00" 0.00" 0.00" 30.9° 17.6° 22.7° 90.0% 1.8 MPH 4.5w/m2
12/16/2011 0.01" 0.00" 0.00" 0.00" 25.4° 13.6° 19.3° 93.6% 1.5 MPH 4.0w/m2
12/17/2011 0.01" 0.00" 0.00" 0.00" 25.5° 10.4° 16.5° 94.4% 0.7 MPH 6.8w/m2
12/18/2011 0.00" 0.00" 0.00" 0.00" 22.5° 12.7° 19.6° 95.8% 1.7 MPH 2.5w/m2
12/19/2011 0.02" 0.00" 0.00" 0.00" 31.6° 16.7° 21.9° 87.6% 1.9 MPH 7.7w/m2
12/20/2011 0.01" 0.00" 0.00" 0.00" 27.6° 8.2° 18.4° 89.7% 2.4 MPH 7.0w/m2
12/21/2011 0.01" 0.00" 0.01" -0.01" 29.8° 18.4° 24.2° 86.8% 3.1 MPH 3.6w/m2
12/22/2011 0.02" 0.00" 0.03" -0.02" 27.7° 10.2° 18.3° 79.4% 1.8 MPH 7.8w/m2
12/23/2011 0.02" 0.00" 0.00" 0.00" 23.2° 4.8° 13.0° 82.0% 2.0 MPH 8.2w/m2
12/24/2011 0.02" 0.00" 0.00" 0.00" 26.3° 3.7° 13.4° 80.8% 2.0 MPH 7.7w/m2
12/25/2011 0.02" 0.00" 0.00" 0.00" 33.5° 7.4° 18.1° 76.3% 2.0 MPH 8.2w/m2
12/26/2011 0.02" 0.00" 0.00" 0.00" 35.6° 10.3° 20.2° 76.2% 1.9 MPH 8.0w/m2
12/27/2011 0.02" 0.00" 0.00" 0.00" 37.2° 13.0° 24.2° 73.5% 2.3 MPH 6.9w/m2
12/28/2011 0.02" 0.00" 0.00" 0.00" 41.8° 20.6° 31.7° 68.0% 2.3 MPH 2.9w/m2
12/29/2011 0.04" 0.00" 0.01" -0.01" 48.1° 35.9° 41.8° 57.9% 3.3 MPH 3.2w/m2
12/30/2011 0.06" 0.00" 0.00" 0.00" 57.3° 34.1° 44.3° 53.6% 3.7 MPH 4.4w/m2
12/31/2011 0.05" 0.00" 0.00" 0.00" 36.7° 23.5° 30.3° 52.8% 6.4 MPH 6.8w/m2
Totals: 0.64" 0.00" 0.24" -0.19" 57.3° 3.3° 22.3° 79.2% 2.4 MPH 6.3w/m2